Tiempo atmosférico en la estación meteorológica de Almendralejo, Badajoz (371 m.)



Fecha
DESCASC
Temp. máxima en grados centígrados (hora)
DESCASC
Temp. mínima en grados centígrados (hora)
DESCASC
Temp. media en grados centígrados
DESCASC
Racha de viento máxima en m/sg (hora)
DESCASC
Velocidad máxima media en intervalos de 10 minutos(hora)
DESCASC
Precipitaciones diarias en mm
DESCASC
Precipitaciones de 00:00 a 06:00 en mm
DESCASC
Precipitaciones de 06:00 a 12:00 en mm
DESCASC
Precipitaciones de 12:00 a 18:00 en mm
DESCASC
Precipitaciones de 18:00 a 24:00 en mm
DESCASC
22-11-2020 18.2 (15:00) 7.9 (08:40) 13.1 5.83 (13:00) 3.06 (13:00) 0 0 0 0 0
21-11-2020 18.2 (15:50) 5.3 (07:20) 11.8 5.83 (16:50) 3.89 (16:40) 0 0 0 0 0
20-11-2020 20.2 (15:50) 9 (08:30) 14.6 6.39 (16:10) 4.17 (16:10) 0 0 0 0 0
19-11-2020 21.7 (16:00) 9.4 (00:00) 15.6 6.67 (14:10) 4.17 (14:10) 0 0 0 0 0
18-11-2020 21.9 (15:20) 10.7 (00:00) 16.3 5 (17:20) 3.33 (01:40) 0.2 0.2 0 0 0
17-11-2020 18.8 (15:20) 8.8 (00:00) 13.8 3.89 (23:40) 3.61 (23:40) 0.2 0 0.2 0 0
16-11-2020 18.2 (15:10) 12.4 (00:00) 15.3 4.17 (15:30) 3.06 (01:00) 0 0 0 0 0
15-11-2020 23.4 (15:40) 13.9 (00:00) 18.6 8.33 (15:10) 5.83 (14:50) 0 0 0 0 0
14-11-2020 19.2 (14:50) 13.8 (00:00) 16.5 7.78 (16:30) 5 (12:50) 1.8 0.2 0.8 0.8 0
13-11-2020 18.7 (15:10) 8.7 (00:00) 13.7 6.67 (14:20) 3.33 (05:50) 0 0 0 0 0
12-11-2020 19.5 (15:40) 9.8 (00:00) 14.7 6.67 (15:20) 4.17 (15:30) 0 0 0 0 0
11-11-2020 19.6 (14:10) 8.2 (00:00) 13.9 5.28 (12:10) 3.33 (11:30) 0 0 0 0 0
10-11-2020 17.7 (15:50) 8.4 (00:00) 13.1 5 (17:00) 3.61 (17:00) 0.2 0 0.2 0 0
09-11-2020 18.1 (16:10) 12 (00:00) 15.1 6.11 (00:40) 3.89 (00:10) 5.6 5.6 0 0 0
08-11-2020 18.8 (14:00) 10.7 (00:00) 14.7 8.61 (23:50) 5.83 (15:10) 0 0 0 0 0
07-11-2020 18.5 (15:10) 11.8 (00:00) 15.2 12.22 (01:00) 6.11 (09:40) 1.6 1.2 0.4 0 0
06-11-2020 21.3 (14:20) 13.3 (00:00) 17.3 16.11 (16:50) 9.17 (17:00) 1.2 0 0 0 1.2
05-11-2020 16 (17:00) 11.6 (00:00) 13.8 11.11 (09:00) 6.39 (12:10) 7.4 6.6 0.8 0 0
04-11-2020 16.4 (14:10) 11.7 (00:00) 14 8.89 (21:00) 5.28 (21:00) 9.6 0 0 2 7.6
03-11-2020 19.9 (16:00) 13.4 (00:00) 16.6 6.39 (08:50) 4.17 (09:00) 0 0 0 0 0
02-11-2020 19.5 (15:50) 12.4 (00:00) 15.9 4.44 (17:20) 2.78 (17:30) 0 0 0 0 0
01-11-2020 22.3 (15:30) 11.7 (00:00) 17 3.61 (17:50) 2.22 (02:00) 0 0 0 0 0
31-10-2020 23.8 (15:30) 11.6 (00:00) 17.7 4.44 (13:00) 2.78 (23:50) 0 0 0 0 0
30-10-2020 23.5 (15:40) 11.5 (00:00) 17.5 4.17 (16:30) 2.78 (16:50) 0 0 0 0 0
29-10-2020 22.9 (15:00) 11.2 (00:00) 17 6.39 (17:10) 4.17 (16:20) 0 0 0 0 0
28-10-2020 19.5 (15:50) 10.7 (00:00) 15.1 4.17 (19:20) 2.5 (17:10) 0 0 0 0 0

Gráficas

Temp. máximas Temp. mínimas Temp. medias Precipitaciones Rachas de viento máximas Velocidades máximas media en intervalos de 10 minutos

Datos horarios

Fecha y hora oficial Temperatura (ºC) Velocidad del viento (km/h) Dirección del viento Racha (km/h) Dirección de racha Precipitación (mm) Presión (hPa) Tendencia (hPa) Humedad (%)
2020-11-26 23:00:00 8.4 4 Sudeste 13 Sur 0 -- -- 93
2020-11-26 22:00:00 9.4 10 Sur 16 Sur 0 -- -- 91
2020-11-26 21:00:00 9.2 8 Sudeste 17 Sudeste 0 -- -- 92
2020-11-26 20:00:00 9.7 7 Sur 21 Sur 0 -- -- 91
2020-11-26 19:00:00 9.8 11 Sudeste 22 Sur 0 -- -- 89
2020-11-26 18:00:00 10.3 15 Sur 33 Sur 0 -- -- 85
2020-11-26 17:00:00 11.3 16 Sur 27 Sur 0 -- -- 83
2020-11-26 16:00:00 11.3 18 Sur 29 Sur 0 -- -- 83
2020-11-26 15:00:00 10.9 12 Sudeste 27 Sur 0 -- -- 85
2020-11-26 14:00:00 11.1 16 Sur 28 Sur 0 -- -- 87
2020-11-26 13:00:00 10.6 19 Sur 29 Sur 0.2 -- -- 89
2020-11-26 12:00:00 10.4 16 Sur 26 Sur 0 -- -- 89
2020-11-26 11:00:00 10.3 15 Sur 34 Sur 0.2 -- -- 91
2020-11-26 10:00:00 10 15 Sur 23 Sur 0.2 -- -- 93
2020-11-26 09:00:00 9.8 11 Sur 26 Sur 0 -- -- 91
2020-11-26 08:00:00 10 17 Sur 24 Sur 0 -- -- 89
2020-11-26 07:00:00 9.8 11 Sudeste 22 Sur 0 -- -- 93
2020-11-26 06:00:00 9.6 11 Sudeste 22 Sur 0 -- -- 91
2020-11-26 05:00:00 9.4 9 Sur 17 Sur 0.2 -- -- 93
2020-11-26 04:00:00 9.1 10 Sur 19 Sur 0 -- -- 95
2020-11-26 03:00:00 8.8 10 Sudeste 18 Sudeste 0.2 -- -- 97
2020-11-26 02:00:00 9 9 Sudeste 12 Sudeste 0.2 -- -- 96
2020-11-26 01:00:00 9.2 7 Oeste 32 Oeste 0.6 -- -- 94
2020-11-26 00:00:00 10.3 13 Sudeste 22 Sur 1.8 -- -- 97
2020-11-25 23:00:00 10.8 17 Sur 29 Sur 1.4 -- -- 94
2020-11-25 22:00:00 11.4 17 Sur 33 Sudoeste 0.2 -- -- 88
2020-11-25 21:00:00 11.5 18 Sur 31 Sur 0 -- -- 87
2020-11-25 20:00:00 12 21 Sudoeste 30 Sudoeste 0 -- -- 85
2020-11-25 19:00:00 11.7 17 Sur 35 Sudoeste 0 -- -- 91
2020-11-25 18:00:00 12.1 20 Sudoeste 34 Sudoeste 0 -- -- 87
2020-11-25 17:00:00 13 20 Sudoeste 35 Sur 0 -- -- 85
2020-11-25 16:00:00 13.4 19 Sudoeste 34 Sudoeste 0 -- -- 81
2020-11-25 15:00:00 13.6 21 Sudoeste 35 Sudoeste 0 -- -- 77
2020-11-25 14:00:00 13.1 20 Sur 33 Sudoeste 0 -- -- 82
2020-11-25 13:00:00 12.6 17 Sur 24 Sudoeste 0.8 -- -- 93
2020-11-25 12:00:00 12.2 17 Sudoeste 30 Sudoeste 1.8 -- -- 93
2020-11-25 11:00:00 12.5 24 Sudoeste 38 Sudoeste 0 -- -- 89
2020-11-25 10:00:00 12.5 23 Sudoeste 34 Sudoeste 0 -- -- 86
2020-11-25 09:00:00 9.9 12 Sudeste 22 Sur 0 -- -- 91
2020-11-25 08:00:00 9.7 18 Sur 25 Sur 0 -- -- 90
2020-11-25 07:00:00 9 12 Sur 19 Sur 0 -- -- 92
2020-11-25 06:00:00 8 10 Sur 15 Sur 0 -- -- 94
2020-11-25 05:00:00 8.1 11 Sur 14 Sur 0 -- -- 92
2020-11-25 04:00:00 8.9 8 Sudoeste 17 Sudoeste 0 -- -- 91
2020-11-25 03:00:00 8.9 12 Sudoeste 18 Sudoeste 0 -- -- 90
2020-11-25 02:00:00 9.5 13 Sudoeste 15 Sudoeste 0 -- -- 89
2020-11-25 01:00:00 10.9 10 Sudoeste 16 Sudoeste 0 -- -- 84
2020-11-25 00:00:00 11.4 9 Sudoeste 14 Sudoeste 0 -- -- 82
2020-11-24 23:00:00 10 8 Sudoeste 10 Sudoeste 0 -- -- 79
2020-11-24 22:00:00 11.3 6 Sur 13 Sur 0 -- -- 76
2020-11-24 21:00:00 11.9 4 Sur 5 Sur 0 -- -- 72
2020-11-24 20:00:00 11.8 0 Calma 8 Oeste 0 -- -- 71
2020-11-24 19:00:00 12.9 6 Sudoeste 10 Sudoeste 0 -- -- 65
2020-11-24 18:00:00 14.5 10 Oeste 22 Oeste 0 -- -- 62
2020-11-24 17:00:00 15.9 17 Oeste 24 Oeste 0 -- -- 58
2020-11-24 16:00:00 16.1 3 Norte 16 Oeste 0 -- -- 61
2020-11-24 15:00:00 16.6 7 Noroeste 23 Sudoeste 0 -- -- 59
2020-11-24 14:00:00 16.1 4 Noroeste 13 Noroeste 0 -- -- 60
2020-11-24 13:00:00 15.8 7 Noroeste 15 Oeste 0 -- -- 63
2020-11-24 12:00:00 14.9 5 Noroeste 11 Noroeste 0 -- -- 66
2020-11-24 11:00:00 12.9 2 Oeste 6 Sur 0 -- -- 74
2020-11-24 10:00:00 8.7 6 Sur 8 Sur 0 -- -- 83
2020-11-24 09:00:00 6 8 Sur 15 Sudoeste 0 -- -- 88
2020-11-24 08:00:00 5.5 11 Sur 15 Sur 0 -- -- 88
2020-11-24 07:00:00 5.3 11 Sur 13 Sur 0 -- -- 90
2020-11-24 06:00:00 5.2 11 Sur 13 Sur 0 -- -- 91
2020-11-24 05:00:00 5.4 8 Sur 12 Sur 0 -- -- 90
2020-11-24 04:00:00 5.6 10 Sur 15 Sudoeste 0 -- -- 89
2020-11-24 03:00:00 6.1 9 Sur 15 Sur 0 -- -- 88
2020-11-24 02:00:00 6.7 12 Sur 18 Sur 0 -- -- 86
2020-11-24 01:00:00 7.7 15 Sur 18 Sur 0 -- -- 84
2020-11-24 00:00:00 8.5 13 Sur 16 Sur 0 -- -- 81
2020-11-23 23:00:00 8.2 12 Sur 14 Sur 0 -- -- 82
2020-11-23 22:00:00 9.6 11 Sur 13 Sur 0 -- -- 81
2020-11-23 21:00:00 11.3 6 Sudeste 8 Sudeste 0 -- -- 81
2020-11-23 20:00:00 11.7 7 Sudeste 9 Este 0 -- -- 81
2020-11-23 19:00:00 12.6 7 Este 11 Este 0 -- -- 78
2020-11-23 18:00:00 14.3 9 Este 14 Este 0 -- -- 70
2020-11-23 17:00:00 16.3 11 Este 17 Este 0 -- -- 62
2020-11-23 16:00:00 16.9 12 Este 18 Nordeste 0 -- -- 59
2020-11-23 15:00:00 17 12 Nordeste 17 Este 0 -- -- 59
2020-11-23 14:00:00 17.2 6 Este 14 Este 0 -- -- 55
2020-11-23 13:00:00 16.1 6 Sur 14 Sudeste 0 -- -- 60
2020-11-23 12:00:00 14.2 7 Sudeste 13 Sudeste 0 -- -- 72
2020-11-23 11:00:00 11.9 9 Sudeste 14 Sudeste 0 -- -- 81
2020-11-23 10:00:00 9.6 7 Sur 10 Sur 0 -- -- 87
2020-11-23 09:00:00 6.3 10 Sur 10 Sur 0 -- -- 96
2020-11-23 08:00:00 6 7 Sudeste 9 Sur 0 -- -- 96
2020-11-23 07:00:00 5.7 9 Sur 10 Sur 0 -- -- 95
2020-11-23 06:00:00 7 9 Sur 12 Sudoeste 0 -- -- 93
2020-11-23 05:00:00 7.2 10 Sudoeste 15 Sudoeste 0 -- -- 94
2020-11-23 04:00:00 7.1 8 Sudoeste 9 Sudoeste 0 -- -- 95
2020-11-23 03:00:00 7.5 5 Sur 8 Sur 0 -- -- 91
2020-11-23 02:00:00 9.5 0 Calma 5 Norte 0 -- -- 93
2020-11-23 01:00:00 9.7 4 Oeste 6 Sudoeste 0 -- -- 92
2020-11-23 00:00:00 9.5 6 Sudoeste 8 Sudoeste 0 -- -- 91
2020-11-22 23:00:00 10.1 5 Sur 7 Este 0 -- -- 88
2020-11-22 22:00:00 11.6 7 Este 8 Este 0 -- -- 86
2020-11-22 21:00:00 12.3 8 Este 11 Este 0 -- -- 83
2020-11-22 20:00:00 12.7 9 Este 13 Este 0 -- -- 81
2020-11-22 19:00:00 13.3 9 Nordeste 14 Nordeste 0 -- -- 79
2020-11-22 18:00:00 15.5 9 Nordeste 15 Nordeste 0 -- -- 72
2020-11-22 17:00:00 17.3 8 Este 14 Nordeste 0 -- -- 66
2020-11-22 16:00:00 17.9 8 Este 18 Este 0 -- -- 64
2020-11-22 15:00:00 18.2 8 Este 17 Sudeste 0 -- -- 62
2020-11-22 14:00:00 17.6 10 Sudeste 20 Sur 0 -- -- 62
2020-11-22 13:00:00 16.8 11 Sur 21 Sudeste 0 -- -- 63
2020-11-22 12:00:00 15.4 9 Sur 18 Sur 0 -- -- 69
2020-11-22 11:00:00 12.8 8 Sudeste 13 Sudeste 0 -- -- 82
2020-11-22 10:00:00 10.4 6 Sudeste 10 Sudeste 0 -- -- 90
2020-11-22 09:00:00 8 8 Sur 12 Sudeste 0 -- -- 95
2020-11-22 08:00:00 8 9 Sudeste 10 Sudeste 0 -- -- 95
2020-11-22 07:00:00 8.7 8 Sudeste 10 Sur 0 -- -- 93
2020-11-22 06:00:00 8.7 8 Sudeste 10 Sudeste 0 -- -- 94
2020-11-22 05:00:00 8.8 6 Sudeste 9 Sudeste 0 -- -- 94
2020-11-22 04:00:00 8.9 6 Sudeste 12 Sudeste 0 -- -- 93
2020-11-22 03:00:00 9.6 6 Sudeste 11 Sudeste 0 -- -- 92
2020-11-22 02:00:00 10 8 Sudeste 11 Sur 0 -- -- 90
2020-11-22 01:00:00 10.6 8 Sudeste 11 Sudeste 0 -- -- 89
2020-11-22 00:00:00 11 8 Sudeste 12 Sur 0 -- -- 88
2020-11-21 23:00:00 11 8 Sur 12 Sur 0 -- -- 86
2020-11-21 22:00:00 11.6 9 Sur 11 Sur 0 -- -- 85
2020-11-21 21:00:00 12.5 8 Sur 13 Sudeste 0 -- -- 77
2020-11-21 20:00:00 13.3 10 Sudeste 14 Sudeste 0 -- -- 71
2020-11-21 19:00:00 14 10 Este 13 Este 0 -- -- 68
2020-11-21 18:00:00 15.6 9 Este 17 Nordeste 0 -- -- 62
2020-11-21 17:00:00 17.5 12 Este 21 Este 0 -- -- 55
2020-11-21 16:00:00 18.1 12 Este 18 Nordeste 0 -- -- 53
2020-11-21 15:00:00 17.8 10 Este 17 Este 0 -- -- 55
2020-11-21 14:00:00 16.9 7 Este 16 Este 0 -- -- 56
2020-11-21 13:00:00 15.5 10 Este 17 Nordeste 0 -- -- 58
2020-11-21 12:00:00 14.1 12 Este 18 Sudeste 0 -- -- 57
2020-11-21 11:00:00 11.7 8 Sudeste 13 Sudeste 0 -- -- 62
2020-11-21 10:00:00 8.7 8 Sur 12 Este 0 -- -- 75
2020-11-21 09:00:00 6.3 9 Este 12 Este 0 -- -- 79
2020-11-21 08:00:00 6.3 9 Sur 15 Sudoeste 0 -- -- 74
2020-11-21 07:00:00 5.9 9 Sur 10 Sur 0 -- -- 95
2020-11-21 06:00:00 6.4 5 Este 10 Este 0 -- -- 94
2020-11-21 05:00:00 7.3 8 Este 11 Este 0 -- -- 93
2020-11-21 04:00:00 8.3 7 Este 10 Este 0 -- -- 81
2020-11-21 03:00:00 8.5 4 Sur 13 Sur 0 -- -- 78
2020-11-21 02:00:00 9.8 8 Sur 9 Sur 0 -- -- 78
2020-11-21 01:00:00 11 6 Sudeste 11 Sudeste 0 -- -- 80
2020-11-21 00:00:00 11.8 7 Sudeste 10 Sudeste 0 -- -- 84
2020-11-20 23:00:00 12.1 8 Sudeste 10 Este 0 -- -- 85
2020-11-20 22:00:00 13.2 3 Sudeste 11 Este 0 -- -- 80
2020-11-20 21:00:00 13.7 5 Este 8 Este 0 -- -- 78
2020-11-20 20:00:00 14.4 8 Este 13 Nordeste 0 -- -- 75
2020-11-20 19:00:00 15.4 9 Este 16 Nordeste 0 -- -- 73
2020-11-20 18:00:00 17.1 11 Este 23 Este 0 -- -- 68
2020-11-20 17:00:00 19.6 12 Este 23 Nordeste 0 -- -- 49
2020-11-20 16:00:00 20.1 12 Nordeste 18 Nordeste 0 -- -- 57
2020-11-20 15:00:00 19.9 12 Este 19 Este 0 -- -- 59
2020-11-20 14:00:00 19.4 8 Este 14 Este 0 -- -- 62
2020-11-20 13:00:00 18.4 8 Este 14 Nordeste 0 -- -- 65
2020-11-20 12:00:00 17.3 9 Este 14 Este 0 -- -- 72
2020-11-20 11:00:00 15.6 6 Este 9 Nordeste 0 -- -- 78
2020-11-20 10:00:00 13.2 5 Este 10 Sur 0 -- -- 86
2020-11-20 09:00:00 10.1 5 Sudeste 7 Sudeste 0 -- -- 95
2020-11-20 08:00:00 10.5 7 Sudeste 11 Sudeste 0 -- -- 92
2020-11-20 07:00:00 11.1 3 Sudeste 8 Este 0 -- -- 94
2020-11-20 06:00:00 11.2 4 Norte 9 Este 0 -- -- 87
2020-11-20 05:00:00 12.1 7 Sudeste 12 Este 0 -- -- 89
2020-11-20 04:00:00 13.2 10 Este 15 Este 0 -- -- 84
2020-11-20 03:00:00 12.2 9 Este 10 Este 0 -- -- 92
2020-11-20 02:00:00 12.1 5 Sudeste 6 Sudeste 0 -- -- 87
2020-11-20 01:00:00 13.7 5 Este 8 Este 0 -- -- 85
2020-11-20 00:00:00 14.7 4 Noroeste 7 Noroeste 0 -- -- 84
2020-11-19 23:00:00 14.7 6 Oeste 8 Noroeste 0 -- -- 84
2020-11-19 22:00:00 15.1 6 Oeste 10 Norte 0 -- -- 80
2020-11-19 21:00:00 16.2 6 Nordeste 10 Norte 0 -- -- 76
2020-11-19 20:00:00 16.5 7 Nordeste 14 Nordeste 0 -- -- 75
2020-11-19 19:00:00 17.1 11 Nordeste 16 Nordeste 0 -- -- 72
2020-11-19 18:00:00 18.6 12 Nordeste 16 Nordeste 0 -- -- 68
2020-11-19 17:00:00 19.7 7 Nordeste 12 Nordeste 0 -- -- 64
2020-11-19 16:00:00 21.7 8 Este 21 Nordeste 0 -- -- 56
2020-11-19 15:00:00 21.2 15 Este 24 Nordeste 0 -- -- 60
2020-11-19 14:00:00 20.5 14 Nordeste 20 Nordeste 0 -- -- 65
2020-11-19 13:00:00 19.1 10 Nordeste 16 Nordeste 0 -- -- 77
2020-11-19 12:00:00 17.2 3 Este 7 Este 0 -- -- 80
2020-11-19 11:00:00 15.5 3 Este 14 Nordeste 0 -- -- 91
2020-11-19 10:00:00 13.1 6 Este 11 Este 0 -- -- 100
2020-11-19 09:00:00 10.8 0 Calma 8 Sudeste 0 -- -- 99
2020-11-19 08:00:00 10 3 Este 6 Sudeste 0 -- -- 100
2020-11-19 07:00:00 10.3 6 Sudeste 12 Este 0 -- -- 98
2020-11-19 06:00:00 12 9 Este 12 Este 0 -- -- 98
2020-11-19 05:00:00 12.6 3 Noroeste 7 Sur 0 -- -- 98
2020-11-19 04:00:00 11.6 5 Sur 8 Este 0 -- -- 96
2020-11-19 03:00:00 13 7 Este 10 Este 0 -- -- 96
2020-11-19 02:00:00 13.6 6 Este 9 Sudeste 0 -- -- 95
2020-11-19 01:00:00 13.5 6 Sudeste 11 Sudeste 0 -- -- 95
2020-11-19 00:00:00 13.9 9 Sur 12 Sur 0 -- -- 92
2020-11-18 23:00:00 14.7 9 Sudeste 9 Sudeste 0 -- -- 92
2020-11-18 22:00:00 15.6 8 Sudeste 10 Este 0 -- -- 89
2020-11-18 21:00:00 16 6 Nordeste 12 Este 0 -- -- 88
2020-11-18 20:00:00 16.8 8 Este 14 Este 0 -- -- 85
2020-11-18 19:00:00 17.3 8 Este 13 Nordeste 0 -- -- 84
2020-11-18 18:00:00 19.3 9 Nordeste 18 Nordeste 0 -- -- 80
2020-11-18 17:00:00 21.3 10 Nordeste 17 Nordeste 0 -- -- 74
2020-11-18 16:00:00 21.8 10 Este 17 Este 0 -- -- 72
2020-11-18 15:00:00 21.5 10 Este 14 Este 0 -- -- 74
2020-11-18 14:00:00 20.7 9 Este 15 Este 0 -- -- 76
2020-11-18 13:00:00 21.4 12 Sudeste 17 Sudeste 0 -- -- 68
2020-11-18 12:00:00 18.4 11 Sudeste 15 Sudeste 0 -- -- 81
2020-11-18 11:00:00 15.9 9 Sudeste 14 Este 0 -- -- 91
2020-11-18 10:00:00 12.9 8 Sudeste 14 Sudeste 0 -- -- 96
2020-11-18 09:00:00 11.2 9 Sudeste 13 Sur 0 -- -- 96
2020-11-18 08:00:00 11 10 Sur 16 Sur 0 -- -- 98
2020-11-18 07:00:00 11 12 Sudeste 14 Sur 0 -- -- 98
2020-11-18 06:00:00 11.5 8 Sudeste 12 Sudeste 0 -- -- 99
2020-11-18 05:00:00 12.1 10 Sudeste 12 Sudeste 0 -- -- 99
2020-11-18 04:00:00 12.2 9 Sudeste 12 Sudeste 0.2 -- -- 99
2020-11-18 03:00:00 12.4 9 Sudeste 12 Sudeste 0 -- -- 99
2020-11-18 02:00:00 12.5 10 Sur 14 Sur 0 -- -- 99
2020-11-18 01:00:00 12.8 9 Sur 13 Sur 0 -- -- 99
2020-11-18 00:00:00 12.7 12 Sur 14 Sur 0 -- -- 99
2020-11-17 23:00:00 12.8 9 Sur 12 Sur 0 -- -- 99
2020-11-17 22:00:00 12.8 8 Sur 9 Sur 0 -- -- 98
2020-11-17 21:00:00 14 3 Sudeste 6 Nordeste 0 -- -- 98
2020-11-17 20:00:00 14.1 0 Calma 4 Nordeste 0 -- -- 97
2020-11-17 19:00:00 14.1 0 Calma 5 Nordeste 0 -- -- 96
2020-11-17 18:00:00 15.9 4 Nordeste 10 Nordeste 0 -- -- 92
2020-11-17 17:00:00 17.3 8 Nordeste 13 Nordeste 0 -- -- 88
2020-11-17 16:00:00 18.7 9 Nordeste 14 Este 0 -- -- 85
2020-11-17 15:00:00 18.6 8 Nordeste 13 Este 0 -- -- 85
2020-11-17 14:00:00 17.7 8 Este 13 Este 0 -- -- 90
2020-11-17 13:00:00 15.9 8 Este 13 Este 0 -- -- 99
2020-11-17 12:00:00 13.8 8 Este 13 Sudeste 0 -- -- 100
2020-11-17 11:00:00 12.2 10 Sudeste 14 Sudeste 0 -- -- 100
2020-11-17 10:00:00 11 9 Sudeste 14 Sudeste 0 -- -- 100
2020-11-17 09:00:00 9.6 9 Sudeste 13 Sudeste 0 -- -- 100
2020-11-17 08:00:00 8.8 8 Sudeste 13 Este 0 -- -- 100
2020-11-17 07:00:00 9.2 7 Sudeste 12 Sudeste 0.2 -- -- 100
2020-11-17 06:00:00 9.5 8 Sudeste 11 Sudeste 0 -- -- 100
2020-11-17 05:00:00 9.7 8 Sudeste 11 Sudeste 0 -- -- 100
2020-11-17 04:00:00 10.1 8 Sur 11 Sudeste 0 -- -- 100
2020-11-17 03:00:00 11 7 Sudeste 13 Sur 0 -- -- 99
2020-11-17 02:00:00 10.9 6 Sur 10 Sur 0 -- -- 100
2020-11-17 01:00:00 11.8 9 Sur 11 Sur 0 -- -- 99
2020-11-17 00:00:00 12.4 6 Sudoeste 10 Sudoeste 0 -- -- 99
2020-11-16 23:00:00 12.8 8 Sudoeste 12 Sudoeste 0 -- -- 99
2020-11-16 22:00:00 12.8 4 Sur 8 Sur 0 -- -- 97
2020-11-16 21:00:00 13.7 0 Calma 4 Nordeste 0 -- -- 96
2020-11-16 20:00:00 14.2 0 Calma 6 Nordeste 0 -- -- 94
2020-11-16 19:00:00 15.4 4 Norte 6 Nordeste 0 -- -- 94
2020-11-16 18:00:00 16.2 6 Nordeste 10 Nordeste 0 -- -- 91
2020-11-16 17:00:00 17.5 6 Nordeste 13 Nordeste 0 -- -- 85
2020-11-16 16:00:00 18.1 8 Norte 15 Nordeste 0 -- -- 83
2020-11-16 15:00:00 18.1 8 Norte 12 Norte 0 -- -- 83
2020-11-16 14:00:00 17.7 6 Noroeste 12 Noroeste 0 -- -- 87
2020-11-16 13:00:00 16.6 8 Noroeste 12 Noroeste 0 -- -- 91
2020-11-16 12:00:00 16 3 Noroeste 12 Norte 0 -- -- 94
2020-11-16 11:00:00 15.9 4 Noroeste 12 Noroeste 0 -- -- 97
2020-11-16 10:00:00 15.7 6 Noroeste 13 Noroeste 0 -- -- 99
2020-11-16 09:00:00 15.5 6 Noroeste 13 Noroeste 0 -- -- 98
2020-11-16 08:00:00 15.4 6 Noroeste 13 Noroeste 0 -- -- 98
2020-11-16 07:00:00 15.4 4 Noroeste 11 Noroeste 0 -- -- 97
2020-11-16 06:00:00 15.3 6 Noroeste 11 Noroeste 0 -- -- 97
2020-11-16 05:00:00 14.8 7 Oeste 12 Oeste 0 -- -- 96
2020-11-16 04:00:00 15.2 5 Noroeste 10 Oeste 0 -- -- 95
2020-11-16 03:00:00 15.7 8 Sudoeste 14 Oeste 0 -- -- 93
2020-11-16 02:00:00 16 9 Oeste 14 Noroeste 0 -- -- 91
2020-11-16 01:00:00 15.4 11 Noroeste 14 Noroeste 0 -- -- 89
2020-11-16 00:00:00 15.4 6 Oeste 13 Sudoeste 0 -- -- 88
2020-11-15 23:00:00 16.1 10 Sudoeste 13 Sudoeste 0 -- -- 85
2020-11-15 22:00:00 16.9 9 Sudoeste 13 Sudoeste 0 -- -- 82
2020-11-15 21:00:00 17.9 3 Sur 5 Sudoeste 0 -- -- 84
2020-11-15 20:00:00 19.1 3 Noroeste 9 Norte 0 -- -- 76
2020-11-15 19:00:00 19.3 7 Oeste 13 Oeste 0 -- -- 74
2020-11-15 18:00:00 20.9 10 Oeste 21 Oeste 0 -- -- 68
2020-11-15 17:00:00 22.7 13 Oeste 26 Oeste 0 -- -- 62
2020-11-15 16:00:00 23.3 18 Oeste 30 Oeste 0 -- -- 61
2020-11-15 15:00:00 23.1 19 Oeste 28 Oeste 0 -- -- 62
2020-11-15 14:00:00 22.2 17 Oeste 26 Sudoeste 0 -- -- 66
2020-11-15 13:00:00 21.8 15 Sudoeste 27 Sudoeste 0 -- -- 68
2020-11-15 12:00:00 20.3 14 Sudoeste 24 Sudoeste 0 -- -- 76
2020-11-15 11:00:00 18.8 12 Sudoeste 22 Sur 0 -- -- 82
2020-11-15 10:00:00 17.1 12 Sur 22 Sur 0 -- -- 88
2020-11-15 09:00:00 14.9 15 Sur 22 Sur 0 -- -- 96
2020-11-15 08:00:00 13.9 12 Sur 17 Sur 0 -- -- 98
2020-11-15 07:00:00 14 8 Sudeste 13 Sur 0 -- -- 97
2020-11-15 06:00:00 14 6 Sur 9 Sur 0 -- -- 97
2020-11-15 05:00:00 14.1 7 Sur 13 Sur 0 -- -- 97
2020-11-15 04:00:00 14.2 10 Sur 19 Sur 0 -- -- 97
2020-11-15 03:00:00 14.2 14 Sur 18 Sur 0 -- -- 96
2020-11-15 02:00:00 14.2 9 Sur 14 Sur 0 -- -- 96
2020-11-15 01:00:00 14.8 9 Sur 13 Sudoeste 0 -- -- 95
2020-11-15 00:00:00 14.9 9 Sur 12 Sudoeste 0 -- -- 94
2020-11-14 23:00:00 15.5 9 Sudoeste 12 Sudoeste 0 -- -- 93
2020-11-14 22:00:00 15.5 5 Sudoeste 9 Oeste 0 -- -- 90
2020-11-14 21:00:00 15.7 6 Sudoeste 8 Sudoeste 0 -- -- 89
2020-11-14 20:00:00 15.9 5 Oeste 8 Oeste 0 -- -- 87
2020-11-14 19:00:00 15.9 3 Oeste 9 Oeste 0 -- -- 84
2020-11-14 18:00:00 17.9 6 Oeste 19 Noroeste 0 -- -- 79
2020-11-14 17:00:00 18.1 10 Noroeste 28 Oeste 0 -- -- 78
2020-11-14 16:00:00 18.8 14 Noroeste 26 Noroeste 0 -- -- 77
2020-11-14 15:00:00 18.8 14 Noroeste 28 Noroeste 0 -- -- 80
2020-11-14 14:00:00 17.9 9 Noroeste 23 Oeste 0 -- -- 89
2020-11-14 13:00:00 17.2 17 Oeste 27 Sudoeste 0.8 -- -- 92
2020-11-14 12:00:00 16.9 15 Oeste 23 Sudoeste 0.6 -- -- 91
2020-11-14 11:00:00 16.7 9 Sudoeste 15 Sudoeste 0 -- -- 91
2020-11-14 10:00:00 15.3 8 Sur 12 Sur 0 -- -- 96
2020-11-14 09:00:00 14.4 9 Sur 16 Sur 0.2 -- -- 97
2020-11-14 08:00:00 14.1 9 Sur 14 Sur 0 -- -- 97
2020-11-14 07:00:00 13.9 8 Sur 12 Sur 0 -- -- 97
2020-11-14 06:00:00 13.8 6 Sur 12 Sur 0 -- -- 96
2020-11-14 05:00:00 13.8 7 Sur 13 Sudeste 0 -- -- 95
2020-11-14 04:00:00 14.1 7 Sur 12 Sur 0 -- -- 94
2020-11-14 03:00:00 14.3 8 Sur 12 Sur 0.2 -- -- 92
2020-11-14 02:00:00 14.7 8 Sur 15 Sur 0 -- -- 89
2020-11-14 01:00:00 14.8 9 Sur 15 Sur 0 -- -- 88
2020-11-14 00:00:00 14.4 8 Sur 13 Sudoeste 0 -- -- 89
2020-11-13 23:00:00 14.6 10 Sudoeste 15 Sudoeste 0 -- -- 87
2020-11-13 22:00:00 15.1 10 Sudoeste 14 Sudoeste 0 -- -- 86
2020-11-13 21:00:00 15.2 9 Sudoeste 12 Sudoeste 0 -- -- 85
2020-11-13 20:00:00 15.2 8 Sur 10 Sur 0 -- -- 82
2020-11-13 19:00:00 15.6 6 Sur 8 Sudoeste 0 -- -- 79
2020-11-13 18:00:00 16.9 5 Sur 14 Sudoeste 0 -- -- 76
2020-11-13 17:00:00 17.9 9 Sudoeste 17 Sudoeste 0 -- -- 68
2020-11-13 16:00:00 18.2 11 Sudoeste 19 Sur 0 -- -- 66
2020-11-13 15:00:00 18.5 11 Sudoeste 24 Sur 0 -- -- 64
2020-11-13 14:00:00 17.8 8 Sur 15 Sur 0 -- -- 70
2020-11-13 13:00:00 16.5 5 Sudeste 10 Sudeste 0 -- -- 81
2020-11-13 12:00:00 15.2 7 Sudeste 10 Sudeste 0 -- -- 81
2020-11-13 11:00:00 14.3 7 Sur 14 Sur 0 -- -- 82
2020-11-13 10:00:00 11.7 10 Sur 15 Sur 0 -- -- 92
2020-11-13 09:00:00 9.3 9 Sudeste 13 Sudeste 0 -- -- 95
2020-11-13 08:00:00 9 8 Sudeste 10 Sur 0 -- -- 94
2020-11-13 07:00:00 8.7 7 Sur 14 Sur 0 -- -- 94
2020-11-13 06:00:00 8.9 11 Sur 15 Sur 0 -- -- 92
2020-11-13 05:00:00 9.1 9 Sudeste 12 Sudeste 0 -- -- 91
2020-11-13 04:00:00 9.1 9 Sudeste 12 Sur 0 -- -- 90
2020-11-13 03:00:00 9.4 11 Sur 14 Sur 0 -- -- 90
2020-11-13 02:00:00 10.3 9 Sudeste 13 Sur 0 -- -- 87
2020-11-13 01:00:00 10 12 Sur 13 Sur 0 -- -- 88
2020-11-13 00:00:00 10.8 11 Sur 13 Sur 0 -- -- 86
2020-11-12 23:00:00 11.5 9 Sur 14 Sudoeste 0 -- -- 82
2020-11-12 22:00:00 12.8 10 Sudoeste 13 Sudoeste 0 -- -- 76
2020-11-12 21:00:00 13.3 9 Sudoeste 12 Sur 0 -- -- 76
2020-11-12 20:00:00 14.9 6 Sur 8 Sur 0 -- -- 70
2020-11-12 19:00:00 16 3 Sur 7 Sur 0 -- -- 65
2020-11-12 18:00:00 17.6 6 Sur 17 Sur 0 -- -- 62
2020-11-12 17:00:00 18.9 8 Sur 19 Sudeste 0 -- -- 57
2020-11-12 16:00:00 19.3 11 Sudeste 24 Sur 0 -- -- 53
2020-11-12 15:00:00 19.2 8 Sudeste 17 Sudeste 0 -- -- 61
2020-11-12 14:00:00 17.7 6 Este 13 Nordeste 0 -- -- 72
2020-11-12 13:00:00 17.3 4 Sudeste 9 Sur 0 -- -- 70
2020-11-12 12:00:00 15.9 6 Sudeste 11 Este 0 -- -- 72
2020-11-12 11:00:00 15.4 6 Sudeste 11 Sudeste 0 -- -- 77
2020-11-12 10:00:00 13.5 8 Sudeste 12 Sudeste 0 -- -- 83
2020-11-12 09:00:00 11 6 Sudeste 11 Sudeste 0 -- -- 92
2020-11-12 08:00:00 9.9 8 Sudeste 12 Sur 0 -- -- 94
2020-11-12 07:00:00 10.1 11 Sur 12 Sur 0 -- -- 93
2020-11-12 06:00:00 10.3 8 Sudeste 15 Sur 0 -- -- 94
2020-11-12 05:00:00 10.3 6 Sudeste 8 Sudeste 0 -- -- 94
2020-11-12 04:00:00 11 6 Sudeste 8 Sudeste 0 -- -- 91
2020-11-12 03:00:00 11.4 6 Sur 10 Sur 0 -- -- 90
2020-11-12 02:00:00 12 7 Sudeste 10 Sur 0 -- -- 89
2020-11-12 01:00:00 11.5 9 Sur 11 Sur 0 -- -- 92
2020-11-12 00:00:00 12.3 5 Sur 9 Sudoeste 0 -- -- 88
2020-11-11 23:00:00 12.6 5 Sur 12 Sur 0 -- -- 90
2020-11-11 22:00:00 12.8 6 Sur 8 Sur 0 -- -- 90
2020-11-11 21:00:00 13.6 6 Sur 10 Este 0 -- -- 86
2020-11-11 20:00:00 14.5 9 Este 13 Este 0 -- -- 83
2020-11-11 19:00:00 14.9 8 Este 14 Este 0 -- -- 83
2020-11-11 18:00:00 16.2 9 Este 14 Este 0 -- -- 80
2020-11-11 17:00:00 18.2 9 Este 14 Este 0 -- -- 72
2020-11-11 16:00:00 18.7 8 Este 14 Este 0 -- -- 66
2020-11-11 15:00:00 19.3 7 Sudeste 15 Sudeste 0 -- -- 61
2020-11-11 14:00:00 19.4 7 Sudeste 18 Sudeste 0 -- -- 64
2020-11-11 13:00:00 18.5 12 Sur 19 Sur 0 -- -- 69
2020-11-11 12:00:00 16.6 10 Sur 18 Sur 0 -- -- 74
2020-11-11 11:00:00 13.8 6 Sudeste 10 Sudeste 0 -- -- 82
2020-11-11 10:00:00 11.5 7 Sudeste 12 Sudeste 0 -- -- 86
2020-11-11 09:00:00 9.2 7 Sudeste 11 Sudeste 0 -- -- 94
2020-11-11 08:00:00 8.6 8 Sudeste 11 Sudeste 0 -- -- 93
2020-11-11 07:00:00 8.8 8 Sudeste 13 Sudeste 0 -- -- 94
2020-11-11 06:00:00 9 9 Sudeste 13 Sudeste 0 -- -- 94
2020-11-11 05:00:00 9.5 8 Sudeste 14 Sur 0 -- -- 91
2020-11-11 04:00:00 9.7 10 Sudeste 12 Sudeste 0 -- -- 94
2020-11-11 03:00:00 10 8 Sudeste 10 Sudeste 0 -- -- 93
2020-11-11 02:00:00 10.2 8 Sudeste 10 Sur 0 -- -- 94
2020-11-11 01:00:00 10.4 8 Sur 9 Sur 0 -- -- 93
2020-11-11 00:00:00 11.2 5 Sur 10 Sudoeste 0 -- -- 92
2020-11-10 23:00:00 12 5 Sudeste 11 Sudeste 0 -- -- 89
2020-11-10 22:00:00 12.4 8 Sudeste 9 Sudeste 0 -- -- 91
2020-11-10 21:00:00 13 6 Sudeste 10 Este 0 -- -- 90
2020-11-10 20:00:00 13.6 8 Este 12 Este 0 -- -- 88
2020-11-10 19:00:00 14.4 9 Este 15 Este 0 -- -- 86
2020-11-10 18:00:00 15.9 8 Nordeste 18 Este 0 -- -- 82
2020-11-10 17:00:00 17.1 13 Nordeste 18 Este 0 -- -- 78
2020-11-10 16:00:00 17.6 9 Nordeste 14 Nordeste 0 -- -- 75
2020-11-10 15:00:00 17 7 Este 14 Nordeste 0 -- -- 80
2020-11-10 14:00:00 15.3 6 Nordeste 12 Nordeste 0 -- -- 89
2020-11-10 13:00:00 14.3 5 Este 10 Norte 0 -- -- 93
2020-11-10 12:00:00 12.1 4 Este 8 Sudeste 0 -- -- 98
2020-11-10 11:00:00 10.7 5 Sudeste 10 Sudeste 0 -- -- 99
2020-11-10 10:00:00 9.8 5 Sudeste 8 Sudeste 0 -- -- 98
2020-11-10 09:00:00 9.3 3 Sudoeste 6 Sudoeste 0 -- -- 100
2020-11-10 08:00:00 8.6 6 Sudoeste 8 Sudoeste 0.2 -- -- 98
2020-11-10 07:00:00 9.5 3 Sur 5 Sudeste 0 -- -- 98
2020-11-10 06:00:00 9.5 3 Sur 5 Sur 0 -- -- 97
2020-11-10 05:00:00 10.7 2 Oeste 5 Noroeste 0 -- -- 97
2020-11-10 04:00:00 11.1 3 Noroeste 6 Noroeste 0 -- -- 97
2020-11-10 03:00:00 11.4 3 Noroeste 6 Noroeste 0 -- -- 97
2020-11-10 02:00:00 11.4 3 Oeste 4 Noroeste 0 -- -- 97
2020-11-10 01:00:00 11.8 0 Calma 0 Calma 0 -- -- 95
2020-11-10 00:00:00 12 0 Calma 6 Norte 0 -- -- 92
2020-11-09 23:00:00 13 5 Norte 7 Noroeste 0 -- -- 92
2020-11-09 22:00:00 13 6 Noroeste 8 Noroeste 0 -- -- 93
2020-11-09 21:00:00 13.1 4 Noroeste 8 Noroeste 0 -- -- 91
2020-11-09 20:00:00 13.6 4 Noroeste 10 Norte 0 -- -- 90
2020-11-09 19:00:00 14.6 5 Norte 10 Norte 0 -- -- 84
2020-11-09 18:00:00 16.2 6 Norte 12 Norte 0 -- -- 75
2020-11-09 17:00:00 17.8 5 Noroeste 12 Noroeste 0 -- -- 65
2020-11-09 16:00:00 18 5 Norte 10 Noroeste 0 -- -- 66
2020-11-09 15:00:00 17.7 6 Noroeste 13 Noroeste 0 -- -- 67
2020-11-09 14:00:00 16.5 6 Norte 17 Norte 0 -- -- 76
2020-11-09 13:00:00 16.9 8 Norte 14 Norte 0 -- -- 79
2020-11-09 12:00:00 14.9 10 Noroeste 15 Noroeste 0 -- -- 90
2020-11-09 11:00:00 14.6 4 Oeste 9 Oeste 0 -- -- 90
2020-11-09 10:00:00 13.7 3 Oeste 5 Oeste 0 -- -- 95
2020-11-09 09:00:00 12.9 0 Calma 9 Oeste 0 -- -- 98
2020-11-09 08:00:00 12.7 3 Noroeste 12 Norte 0 -- -- 98
2020-11-09 07:00:00 13 6 Norte 14 Norte 0 -- -- 98
2020-11-09 06:00:00 13.3 8 Norte 11 Norte 0 -- -- 97
2020-11-09 05:00:00 13.3 3 Noroeste 9 Oeste 0 -- -- 96
2020-11-09 04:00:00 13.1 6 Oeste 12 Oeste 0 -- -- 95
2020-11-09 03:00:00 13.2 6 Oeste 10 Noroeste 0.2 -- -- 96
2020-11-09 02:00:00 13.4 7 Oeste 12 Noroeste 3.2 -- -- 96
2020-11-09 01:00:00 13.7 5 Noroeste 22 Noroeste 2.2 -- -- 94
2020-11-09 00:00:00 14.9 17 Sudoeste 31 Sudoeste 0 -- -- 87
2020-11-08 23:00:00 15.1 18 Sudoeste 28 Sudoeste 0 -- -- 87
2020-11-08 22:00:00 15.3 14 Sudoeste 30 Sudoeste 0 -- -- 86
2020-11-08 21:00:00 15.9 16 Sudoeste 23 Oeste 0 -- -- 80
2020-11-08 20:00:00 15.8 10 Sudoeste 22 Sudoeste 0 -- -- 82
2020-11-08 19:00:00 16 13 Sudoeste 24 Sudoeste 0 -- -- 81
2020-11-08 18:00:00 17.1 12 Sudoeste 27 Sudoeste 0 -- -- 74
2020-11-08 17:00:00 18.1 13 Sudoeste 24 Sudoeste 0 -- -- 69
2020-11-08 16:00:00 18.2 18 Sudoeste 30 Sudoeste 0 -- -- 69
2020-11-08 15:00:00 18 19 Sudoeste 28 Sudoeste 0 -- -- 71
2020-11-08 14:00:00 18.8 18 Sudoeste 27 Sudoeste 0 -- -- 69
2020-11-08 13:00:00 17.3 17 Sudoeste 28 Sudoeste 0 -- -- 72
2020-11-08 12:00:00 17.4 19 Sudoeste 31 Sur 0 -- -- 75
2020-11-08 11:00:00 16.1 16 Sudoeste 26 Sudoeste 0 -- -- 81
2020-11-08 10:00:00 14.3 9 Sur 18 Sur 0 -- -- 88
2020-11-08 09:00:00 12.5 13 Sur 20 Sudoeste 0 -- -- 93
2020-11-08 08:00:00 10.7 10 Sur 17 Sur 0 -- -- 95
2020-11-08 07:00:00 11 4 Sur 18 Sur 0 -- -- 95
2020-11-08 06:00:00 11.3 12 Sur 19 Sur 0 -- -- 95
2020-11-08 05:00:00 11.3 6 Sudeste 14 Sur 0 -- -- 94
2020-11-08 04:00:00 11.4 10 Sur 15 Sur 0 -- -- 94
2020-11-08 03:00:00 11.6 9 Sudeste 12 Sudeste 0 -- -- 93
2020-11-08 02:00:00 12.1 5 Sur 15 Sur 0 -- -- 92
2020-11-08 01:00:00 12.8 11 Sur 23 Sudoeste 0 -- -- 88
2020-11-08 00:00:00 11.8 7 Sudeste 14 Sudoeste 0 -- -- 90
2020-11-07 23:00:00 12.6 10 Sudoeste 21 Sudoeste 0 -- -- 86
2020-11-07 22:00:00 13.3 13 Sudoeste 21 Sudoeste 0 -- -- 84
2020-11-07 21:00:00 13.8 11 Sudoeste 19 Sudoeste 0 -- -- 83
2020-11-07 20:00:00 14.4 11 Sudoeste 15 Sudoeste 0 -- -- 81
2020-11-07 19:00:00 14.9 9 Sudoeste 10 Sudoeste 0 -- -- 77
2020-11-07 18:00:00 16.4 8 Sudoeste 18 Oeste 0 -- -- 70
2020-11-07 17:00:00 17.6 16 Sudoeste 28 Sudoeste 0 -- -- 63
2020-11-07 16:00:00 17.9 17 Oeste 29 Oeste 0 -- -- 63
2020-11-07 15:00:00 18.2 17 Oeste 28 Oeste 0 -- -- 66
2020-11-07 14:00:00 18.2 18 Oeste 29 Oeste 0 -- -- 66
2020-11-07 13:00:00 17.2 20 Oeste 33 Oeste 0 -- -- 71
2020-11-07 12:00:00 16.9 20 Oeste 28 Oeste 0 -- -- 73
2020-11-07 11:00:00 15.6 18 Oeste 27 Oeste 0 -- -- 78
2020-11-07 10:00:00 14.4 22 Oeste 31 Oeste 0 -- -- 82
2020-11-07 09:00:00 13.1 15 Oeste 23 Oeste 0 -- -- 88
2020-11-07 08:00:00 12.4 15 Oeste 24 Oeste 0 -- -- 90
2020-11-07 07:00:00 12.5 13 Sudoeste 21 Sudoeste 0.4 -- -- 92
2020-11-07 06:00:00 12.4 6 Sudoeste 15 Sudoeste 0 -- -- 90
2020-11-07 05:00:00 12.5 10 Sudoeste 22 Sudoeste 0 -- -- 88
2020-11-07 04:00:00 12.9 10 Sudoeste 24 Sudoeste 0 -- -- 84
2020-11-07 03:00:00 12.8 10 Sur 12 Sur 0 -- -- 94
2020-11-07 02:00:00 13.3 6 Sudoeste 19 Oeste 0 -- -- 90
2020-11-07 01:00:00 14.3 18 Oeste 44 Sudoeste 1.2 -- -- 88
2020-11-07 00:00:00 14.4 4 Noroeste 15 Sur 1.2 -- -- 87
2020-11-06 23:00:00 14.3 7 Sur 13 Sur 0 -- -- 84
2020-11-06 22:00:00 13.9 7 Sudeste 13 Sudeste 0 -- -- 83
2020-11-06 21:00:00 13.6 0 Calma 8 Este 0 -- -- 82
2020-11-06 20:00:00 13.8 5 Sur 19 Sudoeste 0 -- -- 82
2020-11-06 19:00:00 14.6 16 Oeste 38 Oeste 0 -- -- 77
2020-11-06 18:00:00 15.4 23 Oeste 40 Oeste 0 -- -- 73
2020-11-06 17:00:00 19.4 33 Sudoeste 58 Sudoeste 0 -- -- 60
2020-11-06 16:00:00 20.1 13 Sur 29 Sudoeste 0 -- -- 63
2020-11-06 15:00:00 21.3 17 Sudoeste 31 Sudoeste 0 -- -- 56
2020-11-06 14:00:00 21.2 20 Sudoeste 31 Sudoeste 0 -- -- 57
2020-11-06 13:00:00 20 23 Sudoeste 35 Sudoeste 0 -- -- 59
2020-11-06 12:00:00 18 12 Sudoeste 27 Sur 0 -- -- 70
2020-11-06 11:00:00 16.6 21 Sur 37 Sur 0 -- -- 69
2020-11-06 10:00:00 14.7 13 Sudeste 27 Sudeste 0 -- -- 78
2020-11-06 09:00:00 14.7 19 Sudeste 29 Este 0 -- -- 75
2020-11-06 08:00:00 13.8 6 Sudeste 13 Sudeste 0 -- -- 82
2020-11-06 07:00:00 14.2 7 Sudeste 13 Sur 0 -- -- 82
2020-11-06 06:00:00 14.5 8 Sudeste 13 Sudeste 0 -- -- 80
2020-11-06 05:00:00 14.2 7 Sudeste 14 Sur 0 -- -- 81
2020-11-06 04:00:00 14.2 8 Sudeste 14 Sudeste 0 -- -- 82
2020-11-06 03:00:00 13.3 5 Este 11 Sudeste 0 -- -- 88
2020-11-06 02:00:00 14 4 Sur 14 Oeste 0 -- -- 84
2020-11-06 01:00:00 14 5 Oeste 15 Sur 0 -- -- 84
2020-11-06 00:00:00 14.3 6 Sudeste 20 Sur 0 -- -- 83
2020-11-05 23:00:00 14.2 10 Sudeste 21 Sudeste 0 -- -- 85
2020-11-05 22:00:00 14.2 12 Sudeste 21 Sudeste 0 -- -- 86
2020-11-05 21:00:00 13.6 9 Sudeste 21 Sudeste 0 -- -- 91
2020-11-05 20:00:00 14 12 Sudeste 24 Este 0 -- -- 89
2020-11-05 19:00:00 14.3 9 Sudeste 21 Sudeste 0 -- -- 88
2020-11-05 18:00:00 15.1 13 Sudeste 27 Sur 0 -- -- 84
2020-11-05 17:00:00 16 14 Sur 35 Sudeste 0 -- -- 81
2020-11-05 16:00:00 14.6 20 Sur 31 Sur 0 -- -- 84
2020-11-05 15:00:00 14.7 12 Sur 26 Sur 0 -- -- 88
2020-11-05 14:00:00 15.1 17 Sur 32 Sur 0 -- -- 85
2020-11-05 13:00:00 15.6 18 Sur 37 Sudeste 0 -- -- 84
2020-11-05 12:00:00 15.3 20 Sudeste 34 Sur 0 -- -- 86
2020-11-05 11:00:00 14.6 14 Sur 27 Sur 0 -- -- 89
2020-11-05 10:00:00 13.6 16 Sur 33 Sur 0 -- -- 92
2020-11-05 09:00:00 13.3 22 Sur 40 Sur 0 -- -- 90
2020-11-05 08:00:00 13.1 20 Sur 36 Sur 0.4 -- -- 94
2020-11-05 07:00:00 13 16 Sudeste 31 Sudeste 0.4 -- -- 97
2020-11-05 06:00:00 12.4 10 Este 18 Este 2 -- -- 97
2020-11-05 05:00:00 12.4 7 Sudeste 28 Sur 2 -- -- 94
2020-11-05 04:00:00 12.7 9 Sudeste 17 Sudeste 2 -- -- 96
2020-11-05 03:00:00 12.5 9 Sudeste 17 Este 0.6 -- -- 97
2020-11-05 02:00:00 12.1 6 Este 10 Nordeste 0 -- -- 96
2020-11-05 01:00:00 11.7 5 Norte 12 Nordeste 0 -- -- 92
2020-11-05 00:00:00 11.7 5 Norte 21 Oeste 0 -- -- 91
2020-11-04 23:00:00 11.8 4 Nordeste 10 Este 0 -- -- 93
2020-11-04 22:00:00 11.8 6 Sur 23 Sur 0.4 -- -- 91
2020-11-04 21:00:00 13 19 Sudeste 32 Sur 0 -- -- 89
2020-11-04 20:00:00 12.5 5 Sur 12 Sudeste 1 -- -- 96
2020-11-04 19:00:00 12.4 4 Nordeste 27 Sudoeste 6.2 -- -- 95
2020-11-04 18:00:00 14 12 Sudeste 23 Sur 1.4 -- -- 87
2020-11-04 17:00:00 15.3 9 Nordeste 18 Norte 0.6 -- -- 88
2020-11-04 16:00:00 15.8 9 Norte 18 Norte 0 -- -- 82
2020-11-04 15:00:00 16.3 9 Norte 15 Norte 0 -- -- 80
2020-11-04 14:00:00 16.1 0 Calma 9 Sudoeste 0 -- -- 77
2020-11-04 13:00:00 15.7 4 Oeste 9 Sudoeste 0 -- -- 77
2020-11-04 12:00:00 14.6 0 Calma 10 Noroeste 0 -- -- 80
2020-11-04 11:00:00 14.3 4 Noroeste 9 Oeste 0 -- -- 82
2020-11-04 10:00:00 12.8 5 Noroeste 10 Norte 0 -- -- 86
2020-11-04 09:00:00 12.3 5 Noroeste 9 Oeste 0 -- -- 86
2020-11-04 08:00:00 12.2 3 Noroeste 9 Oeste 0 -- -- 87
2020-11-04 07:00:00 12.4 4 Oeste 14 Noroeste 0 -- -- 87
2020-11-04 06:00:00 12.6 5 Noroeste 11 Noroeste 0 -- -- 86
2020-11-04 05:00:00 12.7 6 Noroeste 12 Noroeste 0 -- -- 85
2020-11-04 04:00:00 12.4 8 Noroeste 11 Noroeste 0 -- -- 89
2020-11-04 03:00:00 12.4 7 Sudoeste 9 Oeste 0 -- -- 89
2020-11-04 02:00:00 12.7 5 Noroeste 12 Noroeste 0 -- -- 88
2020-11-04 01:00:00 13.2 6 Noroeste 12 Noroeste 0 -- -- 86
2020-11-04 00:00:00 13.4 5 Noroeste 8 Oeste 0 -- -- 84
2020-11-03 23:00:00 14.4 5 Noroeste 7 Noroeste 0 -- -- 79
2020-11-03 22:00:00 14.6 6 Oeste 9 Oeste 0 -- -- 79
2020-11-03 21:00:00 15.3 6 Noroeste 9 Oeste 0 -- -- 75
2020-11-03 20:00:00 16.4 5 Noroeste 11 Noroeste 0 -- -- 70
2020-11-03 19:00:00 17 4 Noroeste 15 Noroeste 0 -- -- 69
2020-11-03 18:00:00 18.6 9 Noroeste 18 Norte 0 -- -- 65
2020-11-03 17:00:00 19.7 8 Norte 18 Norte 0 -- -- 61
2020-11-03 16:00:00 19.9 7 Norte 15 Norte 0 -- -- 62
2020-11-03 15:00:00 18.7 10 Norte 18 Noroeste 0 -- -- 69
2020-11-03 14:00:00 18.4 9 Noroeste 15 Norte 0 -- -- 78
2020-11-03 13:00:00 17.1 6 Norte 16 Norte 0 -- -- 81
2020-11-03 12:00:00 16.1 9 Norte 15 Norte 0 -- -- 83
2020-11-03 11:00:00 15.2 9 Norte 14 Norte 0 -- -- 91
2020-11-03 10:00:00 14 10 Noroeste 17 Noroeste 0 -- -- 97
2020-11-03 09:00:00 14.1 15 Noroeste 23 Noroeste 0 -- -- 98
2020-11-03 08:00:00 14.4 7 Noroeste 19 Norte 0 -- -- 98
2020-11-03 07:00:00 15 6 Noroeste 22 Noroeste 0 -- -- 98
2020-11-03 06:00:00 15.8 8 Noroeste 13 Noroeste 0 -- -- 98
2020-11-03 05:00:00 15.8 4 Noroeste 16 Norte 0 -- -- 98
2020-11-03 04:00:00 15.9 10 Noroeste 16 Noroeste 0 -- -- 97
2020-11-03 03:00:00 16.1 6 Noroeste 13 Noroeste 0 -- -- 97
2020-11-03 02:00:00 16 11 Noroeste 15 Noroeste 0 -- -- 95
2020-11-03 01:00:00 16 5 Noroeste 9 Noroeste 0 -- -- 94
2020-11-03 00:00:00 16.1 5 Noroeste 10 Noroeste 0 -- -- 93
2020-11-02 23:00:00 16.4 8 Noroeste 13 Norte 0 -- -- 92
2020-11-02 22:00:00 16.7 3 Noroeste 8 Noroeste 0 -- -- 90
2020-11-02 21:00:00 16.8 6 Noroeste 10 Noroeste 0 -- -- 89
2020-11-02 20:00:00 17.3 6 Norte 11 Noroeste 0 -- -- 87
2020-11-02 19:00:00 17.8 8 Norte 14 Norte 0 -- -- 85
2020-11-02 18:00:00 18.5 6 Norte 16 Norte 0 -- -- 83
2020-11-02 17:00:00 19.1 9 Norte 14 Noroeste 0 -- -- 80
2020-11-02 16:00:00 19.4 4 Norte 8 Noroeste 0 -- -- 79
2020-11-02 15:00:00 19.4 3 Noroeste 8 Noroeste 0 -- -- 81
2020-11-02 14:00:00 18.9 4 Norte 9 Norte 0 -- -- 83
2020-11-02 13:00:00 18.3 2 Noroeste 4 Noroeste 0 -- -- 85
2020-11-02 12:00:00 17.6 0 Calma 4 Este 0 -- -- 90
2020-11-02 11:00:00 16.6 3 Sur 6 Sudeste 0 -- -- 94
2020-11-02 10:00:00 15.8 0 Calma 8 Sur 0 -- -- 97
2020-11-02 09:00:00 13.6 8 Sur 10 Sur 0 -- -- 97
2020-11-02 08:00:00 12.4 6 Sudoeste 8 Sur 0 -- -- 97
2020-11-02 07:00:00 12.5 4 Sudoeste 8 Sudoeste 0 -- -- 96
2020-11-02 06:00:00 13.1 6 Sudoeste 7 Sudoeste 0 -- -- 95
2020-11-02 05:00:00 13.5 4 Oeste 6 Oeste 0 -- -- 96
2020-11-02 04:00:00 13.6 5 Oeste 7 Oeste 0 -- -- 95
2020-11-02 03:00:00 14.1 6 Oeste 7 Oeste 0 -- -- 96
2020-11-02 02:00:00 13.7 4 Oeste 7 Sudoeste 0 -- -- 94
2020-11-02 01:00:00 14 6 Oeste 7 Oeste 0 -- -- 91
2020-11-02 00:00:00 14.6 5 Oeste 8 Oeste 0 -- -- 88
2020-11-01 23:00:00 14.9 6 Oeste 8 Oeste 0 -- -- 85
2020-11-01 22:00:00 16.4 4 Noroeste 8 Noroeste 0 -- -- 79
2020-11-01 21:00:00 16.8 6 Noroeste 9 Norte 0 -- -- 78
2020-11-01 20:00:00 17 6 Norte 9 Norte 0 -- -- 78
2020-11-01 19:00:00 17.8 6 Norte 10 Norte 0 -- -- 74
2020-11-01 18:00:00 20 5 Norte 13 Norte 0 -- -- 67
2020-11-01 17:00:00 22.1 4 Norte 8 Norte 0 -- -- 58
2020-11-01 16:00:00 22.2 3 Norte 11 Norte 0 -- -- 57
2020-11-01 15:00:00 21.6 4 Norte 12 Noroeste 0 -- -- 65
2020-11-01 14:00:00 20.7 0 Calma 6 Norte 0 -- -- 69
2020-11-01 13:00:00 19.6 3 Noroeste 8 Norte 0 -- -- 75
2020-11-01 12:00:00 18.2 3 Norte 8 Norte 0 -- -- 81
2020-11-01 11:00:00 17 3 Norte 7 Norte 0 -- -- 85
2020-11-01 10:00:00 15.6 0 Calma 5 Nordeste 0 -- -- 90
2020-11-01 09:00:00 13.6 3 Sudoeste 8 Sudoeste 0 -- -- 95
2020-11-01 08:00:00 11.7 4 Sudoeste 6 Sudoeste 0 -- -- 95
2020-11-01 07:00:00 13 3 Noroeste 8 Noroeste 0 -- -- 94
2020-11-01 06:00:00 13.5 6 Noroeste 8 Noroeste 0 -- -- 93
2020-11-01 05:00:00 13.6 5 Oeste 6 Oeste 0 -- -- 94
2020-11-01 04:00:00 13.8 5 Oeste 10 Noroeste 0 -- -- 91
2020-11-01 03:00:00 14.2 4 Noroeste 9 Oeste 0 -- -- 90
2020-11-01 02:00:00 14 8 Oeste 9 Oeste 0 -- -- 89
2020-11-01 01:00:00 15.1 7 Noroeste 12 Noroeste 0 -- -- 84
2020-11-01 00:00:00 15.8 8 Noroeste 14 Noroeste 0 -- -- 82
2020-10-31 23:00:00 16.2 9 Oeste 10 Noroeste 0 -- -- 77
2020-10-31 22:00:00 16.8 6 Noroeste 11 Noroeste 0 -- -- 72
2020-10-31 21:00:00 18 4 Noroeste 8 Norte 0 -- -- 63
2020-10-31 20:00:00 18.6 6 Norte 11 Norte 0 -- -- 61
2020-10-31 19:00:00 19.5 9 Norte 10 Norte 0 -- -- 61
2020-10-31 18:00:00 21.7 8 Norte 13 Norte 0 -- -- 53
2020-10-31 17:00:00 23.4 7 Noroeste 15 Norte 0 -- -- 48
2020-10-31 16:00:00 23.4 5 Norte 15 Norte 0 -- -- 51
2020-10-31 15:00:00 23.5 5 Norte 12 Norte 0 -- -- 49
2020-10-31 14:00:00 22.5 3 Noroeste 15 Norte 0 -- -- 54
2020-10-31 13:00:00 21.5 10 Norte 16 Norte 0 -- -- 61
2020-10-31 12:00:00 21.1 3 Noroeste 6 Noroeste 0 -- -- 63
2020-10-31 11:00:00 18.6 2 Norte 6 Noroeste 0 -- -- 70
2020-10-31 10:00:00 16.8 4 Noroeste 6 Noroeste 0 -- -- 75
2020-10-31 09:00:00 14.5 2 Norte 6 Sudoeste 0 -- -- 82
2020-10-31 08:00:00 11.7 6 Sudoeste 9 Sur 0 -- -- 90
2020-10-31 07:00:00 12 8 Sur 9 Sur 0 -- -- 88
2020-10-31 06:00:00 13.2 3 Sur 10 Noroeste 0 -- -- 83
2020-10-31 05:00:00 13.5 2 Oeste 8 Oeste 0 -- -- 83
2020-10-31 04:00:00 14.8 5 Noroeste 9 Noroeste 0 -- -- 80
2020-10-31 03:00:00 15.2 4 Oeste 5 Oeste 0 -- -- 79
2020-10-31 02:00:00 15.7 4 Norte 6 Norte 0 -- -- 75
2020-10-31 01:00:00 15.1 4 Este 5 Sur 0 -- -- 78
2020-10-31 00:00:00 16.8 0 Calma 6 Noroeste 0 -- -- 73
2020-10-30 23:00:00 17.6 4 Noroeste 6 Oeste 0 -- -- 70
2020-10-30 22:00:00 18.2 4 Noroeste 5 Noroeste 0 -- -- 67
2020-10-30 21:00:00 18.4 3 Norte 9 Nordeste 0 -- -- 68
2020-10-30 20:00:00 18.9 8 Este 12 Este 0 -- -- 65
2020-10-30 19:00:00 19.2 8 Este 11 Nordeste 0 -- -- 68
2020-10-30 18:00:00 21.1 6 Este 13 Nordeste 0 -- -- 63
2020-10-30 17:00:00 22.6 9 Nordeste 15 Este 0 -- -- 59
2020-10-30 16:00:00 23.5 5 Nordeste 14 Nordeste 0 -- -- 54
2020-10-30 15:00:00 23.1 8 Nordeste 13 Nordeste 0 -- -- 57
2020-10-30 14:00:00 22.3 5 Este 13 Este 0 -- -- 62
2020-10-30 13:00:00 21 8 Este 14 Este 0 -- -- 67
2020-10-30 12:00:00 19.5 6 Este 12 Este 0 -- -- 70
2020-10-30 11:00:00 17.5 7 Este 12 Sudeste 0 -- -- 79
2020-10-30 10:00:00 15.1 9 Sudeste 13 Sudeste 0 -- -- 85
2020-10-30 09:00:00 13.1 7 Sudeste 12 Sur 0 -- -- 90
2020-10-30 08:00:00 11.5 8 Sudeste 10 Sudeste 0 -- -- 95
2020-10-30 07:00:00 11.6 8 Sudeste 11 Sudeste 0 -- -- 96
2020-10-30 06:00:00 12 7 Sudeste 11 Sudeste 0 -- -- 96
2020-10-30 05:00:00 12.6 8 Sudeste 10 Sudeste 0 -- -- 97
2020-10-30 04:00:00 12.7 8 Este 10 Este 0 -- -- 95
2020-10-30 03:00:00 13.2 8 Sudeste 10 Sur 0 -- -- 91
2020-10-30 02:00:00 13.3 8 Sur 10 Sur 0 -- -- 91
2020-10-30 01:00:00 13.7 5 Sur 8 Sudeste 0 -- -- 90
2020-10-30 00:00:00 15.3 8 Sudeste 9 Este 0 -- -- 86
2020-10-29 23:00:00 15.6 8 Sudeste 11 Este 0 -- -- 85
2020-10-29 22:00:00 16.2 8 Este 11 Este 0 -- -- 84
2020-10-29 21:00:00 16.6 9 Este 14 Este 0 -- -- 84
2020-10-29 20:00:00 17.3 9 Este 19 Este 0 -- -- 83
2020-10-29 19:00:00 18.3 13 Este 21 Este 0 -- -- 79
2020-10-29 18:00:00 20 14 Este 23 Nordeste 0 -- -- 71
2020-10-29 17:00:00 21.5 14 Nordeste 22 Nordeste 0 -- -- 67
2020-10-29 16:00:00 22.3 13 Nordeste 22 Nordeste 0 -- -- 64
2020-10-29 15:00:00 22.9 6 Sudeste 14 Sudeste 0 -- -- 57
2020-10-29 14:00:00 21.9 8 Sudeste 15 Sudeste 0 -- -- 62
2020-10-29 13:00:00 20.7 8 Sudeste 21 Sudeste 0 -- -- 67
2020-10-29 12:00:00 19 12 Sudeste 22 Sudeste 0 -- -- 71
2020-10-29 11:00:00 16.9 12 Sudeste 18 Este 0 -- -- 81
2020-10-29 10:00:00 14 6 Sudeste 10 Sudeste 0 -- -- 94
2020-10-29 09:00:00 12.2 4 Sudeste 8 Sudeste 0 -- -- 97
2020-10-29 08:00:00 11.2 6 Sudeste 8 Sudeste 0 -- -- 98
2020-10-29 07:00:00 11.3 5 Sur 8 Sur 0 -- -- 97
2020-10-29 06:00:00 11.3 7 Sur 9 Sur 0 -- -- 97
2020-10-29 05:00:00 12 5 Sur 10 Sur 0 -- -- 96
2020-10-29 04:00:00 12.3 5 Sur 8 Sur 0 -- -- 96
2020-10-29 03:00:00 12.9 4 Sur 8 Sur 0 -- -- 94
2020-10-29 02:00:00 13.6 6 Sur 9 Sudeste 0 -- -- 94
2020-10-29 01:00:00 14.1 4 Sudeste 6 Sudeste 0 -- -- 93
2020-10-29 00:00:00 14.6 -- -- -- -- 0 -- -- 90
2020-10-28 23:00:00 15.7 4 Sudoeste 6 Sudoeste 0 -- -- 87
2020-10-28 22:00:00 16.4 4 Sudoeste 6 Sudeste 0 -- -- 86
2020-10-28 21:00:00 16.5 5 Este 10 Nordeste 0 -- -- 84
2020-10-28 20:00:00 16.8 7 Nordeste 15 Nordeste 0 -- -- 83
2020-10-28 19:00:00 16.9 9 Norte 13 Norte 0 -- -- 81
2020-10-28 18:00:00 17.7 7 Norte 14 Norte 0 -- -- 77
2020-10-28 17:00:00 19.5 5 Noroeste 12 Norte 0 -- -- 71
2020-10-28 16:00:00 19.2 8 Nordeste 13 Nordeste 0 -- -- 71
2020-10-28 15:00:00 18.9 3 Norte 8 Norte 0 -- -- 71
2020-10-28 14:00:00 18.4 3 Sur 13 Noroeste 0 -- -- 71
2020-10-28 13:00:00 17.9 3 Sur 8 Sur 0 -- -- 72
2020-10-28 12:00:00 17.1 3 Noroeste 8 Noroeste 0 -- -- 71
2020-10-28 11:00:00 15.9 2 Nordeste 9 Sudeste 0 -- -- 73
2020-10-28 10:00:00 14.7 4 Sur 6 Sudeste 0 -- -- 82
2020-10-28 09:00:00 12.8 2 Sudoeste 6 Sudoeste 0 -- -- 89
2020-10-28 08:00:00 11.5 3 Sur 8 Sur 0 -- -- 91
2020-10-28 07:00:00 11.8 7 Sur 8 Sur 0 -- -- 90
2020-10-28 06:00:00 11.6 3 Sur 4 Sur 0 -- -- 91
2020-10-28 05:00:00 11.7 2 Sudoeste 3 Oeste 0 -- -- 89
2020-10-28 04:00:00 11.8 2 Noroeste 4 Oeste 0 -- -- 88
2020-10-28 03:00:00 11.8 3 Oeste 7 Oeste 0 -- -- 85
2020-10-28 02:00:00 11.3 5 Sudoeste 10 Oeste 0 -- -- 86
2020-10-28 01:00:00 10.7 6 Oeste 10 Oeste 0 -- -- 88
2020-10-28 00:00:00 10.9 8 Oeste 9 Oeste 0 -- -- 87